createdAt,value
2018-11-21T00:01:50.039Z,87.14
2018-11-21T00:04:38.118Z,87.17
2018-11-21T00:07:07.053Z,87.14
2018-11-21T00:09:55.709Z,87.16
2018-11-21T00:12:24.629Z,87.36
2018-11-21T00:14:53.603Z,87.17
2018-11-21T00:17:22.828Z,87.52
2018-11-21T00:19:51.775Z,87.61
2018-11-21T00:22:40.248Z,87.67
2018-11-21T00:25:28.549Z,87.39
2018-11-21T00:27:57.488Z,87.46
2018-11-21T00:30:45.939Z,87.41
2018-11-21T00:33:16.316Z,87.48
2018-11-21T00:36:05.992Z,87.69
2018-11-21T00:38:54.074Z,87.62
2018-11-21T00:41:42.143Z,87.46
2018-11-21T00:44:30.208Z,87.22
2018-11-21T00:47:18.300Z,87.45
2018-11-21T00:49:47.239Z,87.37
2018-11-21T00:52:35.306Z,87.62
2018-11-21T00:55:04.255Z,87.30
2018-11-21T00:57:33.331Z,88.05
2018-11-21T01:00:02.288Z,87.92
2018-11-21T01:05:26.154Z,87.62
2018-11-21T01:11:10.620Z,88.14
2018-11-21T01:13:59.332Z,88.02
2018-11-21T01:16:28.272Z,87.36
2018-11-21T01:19:16.655Z,87.57
2018-11-21T01:21:45.697Z,87.46
2018-11-21T01:24:34.404Z,87.80
2018-11-21T01:27:03.336Z,87.84
2018-11-21T01:29:32.256Z,87.12
2018-11-21T01:32:20.325Z,87.40
2018-11-21T01:34:49.272Z,87.36
2018-11-21T01:37:37.437Z,87.13
2018-11-21T01:40:26.802Z,87.29
2018-11-21T01:43:14.864Z,87.76
2018-11-21T01:45:43.763Z,87.49
2018-11-21T01:48:12.734Z,87.13
2018-11-21T01:50:41.660Z,87.08
2018-11-21T01:53:10.632Z,87.12
2018-11-21T01:55:40.033Z,87.76
2018-11-21T01:58:28.126Z,87.64
2018-11-21T02:00:57.465Z,87.64
2018-11-21T02:03:26.734Z,87.71
2018-11-21T02:05:55.752Z,87.57
2018-11-21T02:08:25.098Z,87.93
2018-11-21T02:11:13.191Z,87.78
2018-11-21T02:14:01.308Z,87.71
2018-11-21T02:16:30.309Z,87.77
2018-11-21T02:18:59.589Z,88.00
2018-11-21T02:21:48.000Z,87.88
2018-11-21T02:24:36.067Z,87.81
2018-11-21T02:27:05.111Z,87.94
2018-11-21T02:29:53.276Z,87.94
2018-11-21T02:32:22.294Z,87.85
2018-11-21T02:35:10.460Z,87.79
2018-11-21T02:37:58.606Z,88.04
2018-11-21T02:40:46.719Z,87.98
2018-11-21T02:43:35.041Z,88.50
2018-11-21T02:46:03.947Z,88.62
2018-11-21T02:48:52.087Z,88.49
2018-11-21T02:51:21.064Z,89.17
2018-11-21T02:54:09.194Z,88.99
2018-11-21T02:57:17.171Z,88.33
2018-11-21T03:00:05.603Z,89.31
2018-11-21T03:02:53.823Z,89.62
2018-11-21T03:05:22.886Z,89.95
2018-11-21T03:08:11.128Z,90.02
2018-11-21T03:10:40.299Z,89.80
2018-11-21T03:13:28.614Z,89.56
2018-11-21T03:16:16.840Z,90.09
2018-11-21T03:18:45.801Z,89.62
2018-11-21T03:21:15.490Z,89.89
2018-11-21T03:23:44.421Z,89.99
2018-11-21T03:26:13.664Z,89.61
2018-11-21T03:29:02.064Z,89.73
2018-11-21T03:31:50.601Z,89.65
2018-11-21T03:34:38.965Z,90.09
2018-11-21T03:37:27.070Z,89.89
2018-11-21T03:40:15.465Z,90.01
2018-11-21T03:42:44.449Z,90.01
2018-11-21T03:45:13.773Z,90.19
2018-11-21T03:47:42.823Z,90.58
2018-11-21T03:50:12.954Z,90.59
2018-11-21T03:52:41.923Z,90.83
2018-11-21T03:55:10.875Z,90.69
2018-11-21T03:57:40.008Z,89.93
2018-11-21T04:00:10.617Z,90.50
2018-11-21T04:02:58.906Z,90.60
2018-11-21T04:05:46.977Z,90.24
2018-11-21T04:08:38.695Z,90.39
2018-11-21T04:11:04.079Z,90.12
2018-11-21T04:13:52.187Z,90.31
2018-11-21T04:16:40.823Z,89.96
2018-11-21T04:19:28.900Z,90.31
2018-11-21T04:22:16.983Z,90.37
2018-11-21T04:25:05.101Z,90.72
2018-11-21T04:27:34.166Z,90.61
2018-11-21T04:30:22.235Z,90.89
2018-11-21T04:33:10.332Z,90.80
2018-11-21T04:35:58.395Z,90.62
2018-11-21T04:38:46.537Z,90.60
2018-11-21T04:41:34.870Z,90.68
2018-11-21T04:44:03.826Z,90.88
2018-11-21T04:46:33.119Z,90.62
2018-11-21T04:49:21.216Z,90.49
2018-11-21T04:52:09.602Z,90.43
2018-11-21T04:54:38.846Z,90.73
2018-11-21T04:57:26.938Z,90.43
2018-11-21T05:00:14.982Z,90.29
2018-11-21T05:03:03.395Z,90.40
2018-11-21T05:05:51.471Z,90.00
2018-11-21T05:08:40.150Z,90.36
2018-11-21T05:11:28.229Z,89.92
2018-11-21T05:13:57.568Z,90.02
2018-11-21T05:16:26.586Z,90.24
2018-11-21T05:18:55.648Z,90.91
2018-11-21T05:21:24.543Z,90.52
2018-11-21T05:24:13.136Z,90.58
2018-11-21T05:26:42.177Z,90.77
2018-11-21T05:29:30.320Z,91.01
2018-11-21T05:32:18.385Z,91.09
2018-11-21T05:34:47.678Z,91.03
2018-11-21T05:37:35.809Z,91.55
2018-11-21T05:40:25.751Z,91.88
2018-11-21T05:43:13.887Z,91.60
2018-11-21T05:45:42.839Z,92.11
2018-11-21T05:48:30.963Z,92.21
2018-11-21T05:50:59.928Z,92.17
2018-11-21T05:53:48.819Z,92.38
2018-11-21T05:56:18.292Z,92.74
2018-11-21T05:59:06.393Z,93.16
2018-11-21T06:01:35.320Z,93.50
2018-11-21T06:04:04.679Z,93.67
2018-11-21T06:06:33.581Z,93.21
2018-11-21T06:09:02.570Z,93.33
2018-11-21T06:11:50.943Z,93.28
2018-11-21T06:14:20.005Z,93.51
2018-11-21T06:17:08.197Z,93.59
2018-11-21T06:19:57.432Z,93.74
2018-11-21T06:22:46.046Z,94.02
2018-11-21T06:25:34.361Z,94.32
2018-11-21T06:28:22.437Z,93.78
2018-11-21T06:30:51.659Z,94.00
2018-11-21T06:33:40.038Z,93.84
2018-11-21T06:36:28.683Z,93.82
2018-11-21T06:38:57.921Z,93.73
2018-11-21T06:41:46.342Z,93.88
2018-11-21T06:44:34.482Z,94.10
2018-11-21T06:47:03.871Z,94.02
2018-11-21T06:49:32.879Z,94.31
2018-11-21T06:52:22.213Z,94.64
2018-11-21T06:55:09.047Z,94.46
2018-11-21T06:57:57.158Z,94.65
2018-11-21T07:00:45.308Z,95.03
2018-11-21T07:03:33.467Z,95.05
2018-11-21T07:06:21.945Z,94.77
2018-11-21T07:09:10.237Z,94.93
2018-11-21T07:11:58.323Z,95.11
2018-11-21T07:14:46.716Z,95.01
2018-11-21T07:17:34.775Z,94.86
2018-11-21T07:20:03.802Z,94.92
2018-11-21T07:22:52.200Z,95.02
2018-11-21T07:25:22.404Z,95.27
2018-11-21T07:27:51.364Z,95.04
2018-11-21T07:30:39.470Z,94.93
2018-11-21T07:33:08.448Z,95.09
2018-11-21T07:35:37.373Z,94.65
2018-11-21T07:38:25.432Z,94.47
2018-11-21T07:41:13.969Z,95.02
2018-11-21T07:43:43.146Z,96.53
2018-11-21T07:46:12.534Z,95.74
2018-11-21T07:48:41.671Z,92.89
2018-11-21T07:51:29.838Z,93.37
2018-11-21T07:53:58.749Z,93.58
2018-11-21T07:57:06.582Z,93.98
2018-11-21T07:59:35.497Z,93.60
2018-11-21T08:02:29.955Z,93.93
2018-11-21T08:05:13.395Z,94.17
2018-11-21T08:07:51.020Z,94.69
2018-11-21T08:10:37.737Z,95.60
2018-11-21T08:13:25.849Z,94.65
2018-11-21T08:16:20.922Z,94.80
2018-11-21T08:19:14.729Z,96.06
2018-11-21T08:22:05.578Z,95.07
2018-11-21T08:24:46.376Z,95.49
2018-11-21T08:27:24.400Z,96.00
2018-11-21T08:29:53.347Z,96.23
2018-11-21T08:32:22.259Z,96.16
2018-11-21T08:34:51.183Z,96.36
2018-11-21T08:37:20.139Z,96.62
2018-11-21T08:39:49.093Z,96.39
2018-11-21T08:42:18.326Z,96.38
2018-11-21T08:44:47.247Z,97.11
2018-11-21T08:47:16.176Z,97.65
2018-11-21T08:49:45.170Z,97.47
2018-11-21T08:52:14.112Z,97.28
2018-11-21T08:54:43.064Z,96.54
2018-11-21T08:57:11.968Z,96.50
2018-11-21T08:59:41.185Z,96.51
2018-11-21T09:02:10.098Z,96.79
2018-11-21T09:04:39.022Z,95.67
2018-11-21T09:07:07.986Z,96.49
2018-11-21T09:09:37.140Z,97.05
2018-11-21T09:12:08.716Z,96.23
2018-11-21T09:14:35.230Z,96.22
2018-11-21T09:17:04.177Z,95.80
2018-11-21T09:19:33.386Z,95.46
2018-11-21T09:22:02.337Z,94.51
2018-11-21T09:24:31.354Z,94.37
2018-11-21T09:27:00.544Z,93.83
2018-11-21T09:29:29.466Z,93.04
2018-11-21T09:31:58.928Z,94.06
2018-11-21T09:34:27.836Z,93.97
2018-11-21T09:36:57.002Z,93.07
2018-11-21T09:39:25.933Z,92.67
2018-11-21T09:41:55.090Z,92.39
2018-11-21T09:44:24.116Z,92.28
2018-11-21T09:46:53.091Z,92.33
2018-11-21T09:49:22.011Z,91.59
2018-11-21T09:51:51.162Z,91.58
2018-11-21T09:54:20.087Z,91.26
2018-11-21T09:56:49.049Z,91.45
2018-11-21T09:59:17.982Z,91.36
2018-11-21T10:02:23.507Z,91.37
2018-11-21T10:04:53.002Z,90.89
2018-11-21T10:07:21.934Z,91.70
2018-11-21T10:09:51.612Z,90.64
2018-11-21T10:12:20.573Z,90.59
2018-11-21T10:14:49.464Z,90.57
2018-11-21T10:17:18.367Z,90.68
2018-11-21T10:19:47.542Z,91.41
2018-11-21T10:22:16.633Z,91.25
2018-11-21T10:24:45.553Z,90.54
2018-11-21T10:27:14.506Z,89.58
2018-11-21T10:29:43.717Z,90.11
2018-11-21T10:32:12.673Z,90.04
2018-11-21T10:34:41.816Z,89.90
2018-11-21T10:37:10.741Z,90.42
2018-11-21T10:39:39.690Z,89.68
2018-11-21T10:42:08.648Z,89.21
2018-11-21T10:44:37.536Z,89.05
2018-11-21T10:47:06.716Z,89.34
2018-11-21T10:49:35.651Z,89.16
2018-11-21T10:52:05.025Z,89.10
2018-11-21T10:54:34.043Z,89.08
2018-11-21T10:57:02.971Z,88.53
2018-11-21T10:59:31.904Z,89.10
2018-11-21T11:02:37.878Z,89.18
2018-11-21T11:05:32.376Z,88.54
2018-11-21T11:08:26.200Z,88.85
2018-11-21T11:11:15.495Z,89.21
2018-11-21T11:14:01.926Z,89.20
2018-11-21T11:16:49.116Z,89.73
2018-11-21T11:19:28.198Z,89.19
2018-11-21T11:22:34.576Z,89.08
2018-11-21T11:25:22.709Z,89.34
2018-11-21T11:28:16.297Z,89.21
2018-11-21T11:31:02.612Z,88.59
2018-11-21T11:33:44.198Z,88.57
2018-11-21T11:36:30.763Z,88.13
2018-11-21T11:39:30.679Z,88.83
2018-11-21T11:42:17.531Z,89.36
2018-11-21T11:45:04.007Z,89.68
2018-11-21T11:48:08.448Z,91.07
2018-11-21T11:51:02.567Z,91.29
2018-11-21T11:53:51.259Z,92.11
2018-11-21T11:56:37.828Z,92.24
2018-11-21T11:59:24.410Z,93.93
2018-11-21T12:02:24.284Z,94.33
2018-11-21T12:05:11.006Z,95.26
2018-11-21T12:07:59.319Z,95.70
2018-11-21T12:10:46.005Z,96.24
2018-11-21T12:13:27.188Z,96.30
2018-11-21T12:16:13.707Z,97.67
2018-11-21T12:19:05.651Z,97.89
2018-11-21T12:21:59.656Z,96.60
2018-11-21T12:24:44.781Z,96.16
2018-11-21T12:27:26.520Z,95.98
2018-11-21T12:30:17.722Z,95.94
2018-11-21T12:33:17.930Z,94.87
2018-11-21T12:36:08.015Z,95.44
2018-11-21T12:38:56.392Z,94.15
2018-11-21T12:41:43.017Z,93.67
2018-11-21T12:44:26.525Z,92.25
2018-11-21T12:47:13.361Z,92.92
2018-11-21T12:50:04.280Z,92.39
2018-11-21T12:52:50.408Z,91.97
2018-11-21T12:55:30.649Z,92.16
2018-11-21T12:58:06.553Z,91.92
2018-11-21T13:01:00.553Z,92.35
2018-11-21T13:03:45.074Z,92.38
2018-11-21T13:06:32.444Z,91.96
2018-11-21T13:09:20.567Z,92.63
2018-11-21T13:12:02.663Z,93.31
2018-11-21T13:14:42.805Z,91.75
2018-11-21T13:17:30.939Z,91.89
2018-11-21T13:20:27.911Z,91.57
2018-11-21T13:23:08.194Z,91.82
2018-11-21T13:25:56.374Z,91.75
2018-11-21T13:28:42.765Z,92.16
2018-11-21T13:31:29.364Z,91.85
2018-11-21T13:34:17.456Z,91.48
2018-11-21T13:37:11.876Z,91.63
2018-11-21T13:40:03.155Z,91.90
2018-11-21T13:42:45.898Z,92.03
2018-11-21T13:45:24.585Z,92.28
2018-11-21T13:48:18.297Z,92.69
2018-11-21T13:51:13.097Z,92.27
2018-11-21T13:54:18.997Z,92.24
2018-11-21T13:56:48.943Z,92.84
2018-11-21T13:59:17.884Z,93.95
2018-11-21T14:01:46.813Z,94.59
2018-11-21T14:04:15.877Z,95.03
2018-11-21T14:06:44.795Z,95.28
2018-11-21T14:09:18.588Z,96.21
2018-11-21T14:11:48.146Z,96.03
2018-11-21T14:14:17.556Z,96.08
2018-11-21T14:16:46.792Z,96.28
2018-11-21T14:19:15.765Z,96.25
2018-11-21T14:21:44.719Z,96.88
2018-11-21T14:24:14.117Z,96.22
2018-11-21T14:26:43.023Z,95.38
2018-11-21T14:29:12.184Z,95.84
2018-11-21T14:31:41.126Z,95.55
2018-11-21T14:34:10.057Z,95.52
2018-11-21T14:36:39.103Z,95.92
2018-11-21T14:39:10.287Z,95.82
2018-11-21T14:41:41.020Z,95.68
2018-11-21T14:44:10.348Z,95.44
2018-11-21T14:46:40.029Z,95.56
2018-11-21T14:49:09.310Z,95.64
2018-11-21T14:51:38.730Z,95.17
2018-11-21T14:54:08.293Z,95.19
2018-11-21T14:56:37.300Z,95.29
2018-11-21T14:59:06.459Z,95.36
2018-11-21T15:01:35.428Z,95.67
2018-11-21T15:04:04.386Z,95.51
2018-11-21T15:06:33.776Z,94.83
2018-11-21T15:09:03.012Z,94.58
2018-11-21T15:11:32.348Z,94.89
2018-11-21T15:14:02.229Z,94.74
2018-11-21T15:16:31.158Z,95.20
2018-11-21T15:19:00.126Z,94.56
2018-11-21T15:21:29.060Z,94.70
2018-11-21T15:23:57.990Z,94.36
2018-11-21T15:26:26.924Z,94.83
2018-11-21T15:28:55.926Z,94.35
2018-11-21T15:31:25.202Z,94.70
2018-11-21T15:33:54.194Z,94.79
2018-11-21T15:36:23.454Z,94.46
2018-11-21T15:38:52.403Z,94.47
2018-11-21T15:41:21.560Z,94.52
2018-11-21T15:43:50.518Z,94.42
2018-11-21T15:46:19.414Z,94.29
2018-11-21T15:48:48.343Z,94.30
2018-11-21T15:51:17.261Z,94.30
2018-11-21T15:53:46.189Z,94.11
2018-11-21T15:56:15.104Z,93.90
2018-11-21T15:58:44.025Z,94.02
2018-11-21T16:01:13.056Z,94.26
2018-11-21T16:03:41.959Z,94.16
2018-11-21T16:06:10.898Z,94.09
2018-11-21T16:08:39.868Z,94.05
2018-11-21T16:11:08.816Z,94.19
2018-11-21T16:13:37.808Z,94.04
2018-11-21T16:16:06.735Z,93.99
2018-11-21T16:18:35.655Z,94.01
2018-11-21T16:21:04.585Z,93.80
2018-11-21T16:23:33.557Z,93.90
2018-11-21T16:26:02.776Z,93.91
2018-11-21T16:28:31.727Z,94.04
2018-11-21T16:31:00.946Z,93.77
2018-11-21T16:33:29.918Z,93.98
2018-11-21T16:35:58.784Z,94.21
2018-11-21T16:38:27.758Z,94.48
2018-11-21T16:40:56.948Z,94.90
2018-11-21T16:43:26.089Z,94.87
2018-11-21T16:45:56.746Z,94.60
2018-11-21T16:48:25.665Z,94.46
2018-11-21T16:50:54.663Z,94.66
2018-11-21T16:53:23.521Z,95.06
2018-11-21T16:55:52.528Z,95.33
2018-11-21T16:58:21.510Z,95.02
2018-11-21T17:00:50.451Z,95.11
2018-11-21T17:03:19.448Z,95.32
2018-11-21T17:05:48.613Z,94.90
2018-11-21T17:08:17.519Z,94.88
2018-11-21T17:10:46.459Z,95.08
2018-11-21T17:13:15.414Z,95.17
2018-11-21T17:15:44.385Z,95.63
2018-11-21T17:18:13.298Z,95.58
2018-11-21T17:20:43.906Z,95.62
2018-11-21T17:23:12.831Z,95.65
2018-11-21T17:25:42.190Z,95.98
2018-11-21T17:28:11.183Z,95.95
2018-11-21T17:30:40.208Z,96.15
2018-11-21T17:33:09.127Z,96.59
2018-11-21T17:35:38.312Z,96.27
2018-11-21T17:38:07.572Z,95.79
2018-11-21T17:40:38.359Z,95.69
2018-11-21T17:43:07.712Z,95.70
2018-11-21T17:45:36.550Z,95.91
2018-11-21T17:48:05.939Z,95.84
2018-11-21T17:50:34.969Z,95.57
2018-11-21T17:53:05.242Z,95.28
2018-11-21T17:55:35.546Z,95.62
2018-11-21T17:58:04.449Z,95.54
